createdAt,value
2018-08-16T00:01:13.442Z,14.90
2018-08-16T00:03:41.588Z,14.90
2018-08-16T00:06:09.726Z,14.90
2018-08-16T00:08:37.861Z,14.90
2018-08-16T00:11:06.018Z,14.90
2018-08-16T00:13:34.185Z,14.90
2018-08-16T00:16:02.324Z,14.90
2018-08-16T00:18:30.463Z,14.80
2018-08-16T00:20:58.606Z,14.70
2018-08-16T00:23:26.762Z,14.70
2018-08-16T00:25:54.910Z,14.60
2018-08-16T00:28:23.077Z,14.60
2018-08-16T00:30:51.240Z,14.70
2018-08-16T00:33:19.397Z,14.70
2018-08-16T00:35:47.543Z,14.70
2018-08-16T00:38:15.673Z,14.60
2018-08-16T00:40:43.837Z,14.50
2018-08-16T00:43:12.011Z,14.40
2018-08-16T00:45:40.115Z,14.40
2018-08-16T00:48:08.589Z,14.30
2018-08-16T00:50:36.737Z,14.30
2018-08-16T00:53:05.094Z,14.10
2018-08-16T00:55:33.255Z,14.00
2018-08-16T00:58:01.945Z,13.90
2018-08-16T01:00:30.165Z,13.90
2018-08-16T01:02:58.305Z,13.90
2018-08-16T01:05:26.459Z,13.90
2018-08-16T01:07:54.635Z,13.90
2018-08-16T01:10:22.781Z,13.80
2018-08-16T01:12:50.913Z,13.80
2018-08-16T01:15:19.050Z,13.80
2018-08-16T01:17:47.190Z,13.80
2018-08-16T01:20:15.334Z,13.80
2018-08-16T01:22:43.504Z,13.90
2018-08-16T01:25:12.327Z,14.00
2018-08-16T01:27:40.502Z,14.00
2018-08-16T01:30:09.269Z,14.00
2018-08-16T01:32:37.406Z,14.00
2018-08-16T01:35:05.981Z,14.00
2018-08-16T01:37:34.133Z,14.00
2018-08-16T01:40:02.284Z,13.90
2018-08-16T01:42:30.417Z,13.80
2018-08-16T01:44:58.541Z,13.80
2018-08-16T01:47:27.217Z,13.70
2018-08-16T01:49:55.393Z,13.70
2018-08-16T01:52:23.554Z,13.60
2018-08-16T01:54:51.677Z,13.50
2018-08-16T01:57:19.816Z,13.40
2018-08-16T01:59:47.940Z,13.30
2018-08-16T02:02:16.090Z,13.30
2018-08-16T02:04:44.222Z,13.40
2018-08-16T02:07:12.361Z,13.40
2018-08-16T02:09:40.490Z,13.50
2018-08-16T02:12:08.626Z,13.50
2018-08-16T02:14:36.753Z,13.50
2018-08-16T02:17:04.913Z,13.60
2018-08-16T02:19:33.032Z,13.60
2018-08-16T02:22:01.173Z,13.70
2018-08-16T02:24:29.308Z,13.60
2018-08-16T02:26:57.457Z,13.70
2018-08-16T02:29:25.609Z,13.60
2018-08-16T02:31:53.737Z,13.60
2018-08-16T02:34:21.857Z,13.50
2018-08-16T02:36:49.991Z,13.50
2018-08-16T02:39:18.131Z,13.50
2018-08-16T02:41:49.302Z,13.50
2018-08-16T02:44:17.434Z,13.40
2018-08-16T02:46:45.553Z,13.40
2018-08-16T02:49:13.685Z,13.30
2018-08-16T02:51:41.807Z,13.30
2018-08-16T02:54:09.942Z,13.30
2018-08-16T02:56:38.089Z,13.30
2018-08-16T02:59:06.226Z,13.30
2018-08-16T03:01:34.347Z,13.30
2018-08-16T03:04:02.469Z,13.40
2018-08-16T03:06:30.594Z,13.50
2018-08-16T03:08:58.754Z,13.50
2018-08-16T03:11:26.879Z,13.60
2018-08-16T03:13:55.076Z,13.50
2018-08-16T03:16:23.245Z,13.50
2018-08-16T03:18:51.421Z,13.50
2018-08-16T03:21:19.557Z,13.40
2018-08-16T03:23:47.689Z,13.30
2018-08-16T03:26:15.812Z,13.30
2018-08-16T03:28:43.930Z,13.30
2018-08-16T03:31:12.045Z,13.40
2018-08-16T03:33:40.174Z,13.50
2018-08-16T03:36:08.301Z,13.60
2018-08-16T03:38:36.433Z,13.80
2018-08-16T03:41:04.593Z,13.80
2018-08-16T03:43:32.769Z,13.90
2018-08-16T03:46:00.977Z,14.00
2018-08-16T03:48:29.129Z,14.00
2018-08-16T03:50:57.249Z,14.00
2018-08-16T03:53:25.378Z,14.00
2018-08-16T03:55:53.501Z,13.80
2018-08-16T03:58:21.663Z,13.60
2018-08-16T04:00:49.855Z,13.50
2018-08-16T04:03:17.993Z,13.50
2018-08-16T04:05:46.140Z,13.50
2018-08-16T04:08:14.258Z,13.50
2018-08-16T04:10:42.394Z,13.40
2018-08-16T04:13:10.522Z,13.40
2018-08-16T04:15:38.657Z,13.30
2018-08-16T04:18:06.773Z,13.20
2018-08-16T04:20:34.905Z,13.20
2018-08-16T04:23:03.061Z,13.20
2018-08-16T04:25:31.211Z,13.20
2018-08-16T04:27:59.322Z,13.40
2018-08-16T04:30:27.442Z,13.50
2018-08-16T04:32:55.564Z,13.40
2018-08-16T04:35:23.755Z,13.40
2018-08-16T04:37:51.830Z,13.40
2018-08-16T04:40:19.964Z,13.40
2018-08-16T04:42:48.097Z,13.50
2018-08-16T04:45:16.222Z,13.60
2018-08-16T04:47:44.348Z,13.70
2018-08-16T04:50:12.927Z,13.70
2018-08-16T04:52:41.113Z,13.80
2018-08-16T04:55:10.122Z,13.90
2018-08-16T04:57:38.782Z,13.90
2018-08-16T05:00:09.285Z,14.00
2018-08-16T05:02:37.565Z,13.90
2018-08-16T05:05:05.842Z,13.80
2018-08-16T05:07:33.965Z,13.80
2018-08-16T05:10:02.098Z,13.80
2018-08-16T05:12:30.210Z,13.80
2018-08-16T05:14:58.381Z,13.90
2018-08-16T05:17:26.506Z,14.00
2018-08-16T05:19:54.635Z,14.10
2018-08-16T05:22:22.750Z,14.20
2018-08-16T05:24:50.874Z,14.20
2018-08-16T05:27:19.001Z,14.30
2018-08-16T05:29:47.138Z,14.40
2018-08-16T05:32:15.277Z,14.40
2018-08-16T05:34:43.453Z,14.50
2018-08-16T05:37:11.589Z,14.60
2018-08-16T05:39:39.717Z,14.60
2018-08-16T05:42:07.893Z,14.70
2018-08-16T05:44:36.017Z,14.80
2018-08-16T05:47:04.152Z,14.90
2018-08-16T05:49:32.275Z,14.90
2018-08-16T05:52:00.410Z,15.00
2018-08-16T05:54:28.574Z,15.00
2018-08-16T05:56:56.703Z,15.10
2018-08-16T05:59:24.893Z,15.20
2018-08-16T06:01:52.957Z,15.30
2018-08-16T06:04:21.090Z,15.30
2018-08-16T06:06:49.244Z,15.40
2018-08-16T06:09:17.370Z,15.50
2018-08-16T06:11:45.521Z,15.60
2018-08-16T06:14:13.668Z,15.60
2018-08-16T06:16:41.818Z,15.70
2018-08-16T06:19:09.949Z,15.80
2018-08-16T06:21:38.093Z,15.90
2018-08-16T06:24:06.411Z,16.10
2018-08-16T06:26:34.538Z,16.10
2018-08-16T06:29:02.690Z,16.20
2018-08-16T06:31:30.829Z,16.40
2018-08-16T06:33:58.985Z,16.50
2018-08-16T06:36:27.125Z,16.60
2018-08-16T06:38:55.338Z,16.70
2018-08-16T06:41:23.406Z,16.80
2018-08-16T06:43:51.533Z,16.80
2018-08-16T06:46:19.748Z,16.90
2018-08-16T06:48:48.139Z,17.00
2018-08-16T06:51:16.279Z,17.10
2018-08-16T06:53:44.427Z,17.20
2018-08-16T06:56:12.772Z,17.30
2018-08-16T06:58:40.949Z,17.40
2018-08-16T07:01:09.699Z,17.50
2018-08-16T07:03:37.838Z,17.60
2018-08-16T07:06:05.977Z,17.60
2018-08-16T07:08:34.112Z,17.80
2018-08-16T07:11:02.273Z,17.80
2018-08-16T07:13:30.409Z,18.00
2018-08-16T07:15:58.534Z,18.10
2018-08-16T07:18:26.721Z,18.20
2018-08-16T07:20:54.893Z,18.30
2018-08-16T07:23:23.298Z,18.40
2018-08-16T07:25:51.431Z,18.50
2018-08-16T07:28:19.634Z,18.50
2018-08-16T07:30:47.826Z,18.70
2018-08-16T07:33:16.029Z,18.70
2018-08-16T07:35:44.244Z,18.90
2018-08-16T07:38:12.401Z,18.90
2018-08-16T07:40:40.546Z,19.00
2018-08-16T07:43:08.685Z,19.10
2018-08-16T07:45:37.038Z,19.20
2018-08-16T07:48:05.738Z,19.30
2018-08-16T07:50:33.889Z,19.40
2018-08-16T07:53:02.078Z,19.50
2018-08-16T07:55:30.213Z,19.60
2018-08-16T07:57:58.341Z,19.70
2018-08-16T08:00:26.470Z,19.80
2018-08-16T08:02:54.615Z,19.90
2018-08-16T08:05:22.767Z,20.00
2018-08-16T08:07:50.918Z,20.10
2018-08-16T08:10:19.063Z,20.10
2018-08-16T08:12:47.246Z,20.20
2018-08-16T08:15:15.829Z,20.30
2018-08-16T08:17:43.926Z,20.40
2018-08-16T08:20:14.685Z,20.50
2018-08-16T08:22:42.973Z,20.60
2018-08-16T08:25:11.946Z,20.60
2018-08-16T08:27:40.089Z,20.80
2018-08-16T08:30:12.081Z,20.80
2018-08-16T08:32:40.661Z,20.90
2018-08-16T08:35:08.793Z,21.00
2018-08-16T08:37:48.470Z,21.10
2018-08-16T08:40:16.970Z,21.30
2018-08-16T08:42:45.089Z,21.40
2018-08-16T08:45:13.273Z,21.50
2018-08-16T08:47:45.277Z,21.60
2018-08-16T08:50:13.470Z,21.70
2018-08-16T08:52:41.721Z,21.80
2018-08-16T08:55:21.345Z,21.80
2018-08-16T08:58:01.038Z,21.90
2018-08-16T09:00:29.222Z,22.00
2018-08-16T09:02:57.367Z,22.20
2018-08-16T09:05:25.509Z,22.30
2018-08-16T09:07:54.455Z,22.50
2018-08-16T09:11:03.874Z,22.50
2018-08-16T09:13:43.627Z,22.70
2018-08-16T09:16:17.104Z,22.80
2018-08-16T09:18:45.238Z,23.00
2018-08-16T09:21:13.965Z,23.20
2018-08-16T09:23:42.081Z,23.30
2018-08-16T09:26:15.560Z,23.50
2018-08-16T09:28:43.681Z,23.60
2018-08-16T09:31:23.866Z,23.80
2018-08-16T09:34:03.495Z,23.90
2018-08-16T09:36:31.678Z,24.20
2018-08-16T09:38:59.834Z,24.30
2018-08-16T09:41:28.558Z,24.20
2018-08-16T09:43:56.695Z,24.30
2018-08-16T09:47:11.170Z,24.40
2018-08-16T09:49:44.037Z,24.40
2018-08-16T09:52:12.845Z,24.50
2018-08-16T09:54:41.002Z,24.50
2018-08-16T09:57:10.134Z,24.60
2018-08-16T09:59:38.322Z,24.70
2018-08-16T10:02:07.890Z,24.70
2018-08-16T10:04:36.078Z,24.80
2018-08-16T10:07:04.423Z,24.80
2018-08-16T10:09:32.865Z,25.00
2018-08-16T10:12:02.055Z,25.10
2018-08-16T10:14:30.244Z,25.00
2018-08-16T10:16:58.485Z,25.20
2018-08-16T10:19:27.283Z,25.50
2018-08-16T10:21:56.463Z,25.60
2018-08-16T10:24:24.643Z,25.50
2018-08-16T10:26:52.860Z,25.30
2018-08-16T10:29:20.991Z,25.10
2018-08-16T10:31:49.151Z,25.00
2018-08-16T10:34:17.313Z,25.10
2018-08-16T10:36:45.490Z,25.40
2018-08-16T10:39:15.284Z,25.70
2018-08-16T10:41:43.529Z,26.00
2018-08-16T10:44:12.289Z,26.20
2018-08-16T10:46:40.444Z,26.30
2018-08-16T10:49:08.670Z,26.50
2018-08-16T10:51:36.844Z,26.60
2018-08-16T10:54:05.040Z,26.60
2018-08-16T10:56:33.213Z,26.60
2018-08-16T10:59:01.654Z,26.80
2018-08-16T11:01:30.887Z,26.90
2018-08-16T11:03:59.871Z,27.00
2018-08-16T11:06:28.025Z,27.20
2018-08-16T11:08:56.198Z,27.40
2018-08-16T11:11:24.495Z,27.40
2018-08-16T11:13:52.657Z,27.20
2018-08-16T11:16:20.837Z,26.90
2018-08-16T11:18:49.257Z,26.80
2018-08-16T11:21:17.462Z,26.70
2018-08-16T11:23:45.617Z,26.80
2018-08-16T11:26:13.795Z,26.70
2018-08-16T11:28:42.003Z,26.40
2018-08-16T11:31:10.171Z,26.20
2018-08-16T11:33:38.342Z,26.20
2018-08-16T11:36:06.502Z,26.30
2018-08-16T11:38:34.684Z,26.30
2018-08-16T11:41:02.866Z,26.50
2018-08-16T11:43:31.054Z,26.60
2018-08-16T11:45:59.242Z,26.60
2018-08-16T11:48:27.424Z,26.70
2018-08-16T11:50:55.602Z,26.60
2018-08-16T11:53:24.615Z,26.70
2018-08-16T11:55:52.769Z,26.60
2018-08-16T11:58:20.966Z,26.60
2018-08-16T12:00:49.147Z,26.70
2018-08-16T12:03:17.353Z,26.80
2018-08-16T12:05:45.558Z,26.90
2018-08-16T12:08:13.732Z,27.20
2018-08-16T12:10:48.513Z,27.40
2018-08-16T12:13:16.750Z,27.40
2018-08-16T12:15:44.939Z,27.20
2018-08-16T12:18:13.103Z,27.20
2018-08-16T12:20:41.269Z,27.40
2018-08-16T12:23:16.062Z,27.50
2018-08-16T12:25:44.231Z,27.60
2018-08-16T12:28:12.406Z,27.70
2018-08-16T12:30:40.599Z,27.50
2018-08-16T12:33:08.767Z,27.40
2018-08-16T12:35:36.911Z,27.30
2018-08-16T12:38:05.069Z,27.30
2018-08-16T12:40:33.280Z,27.40
2018-08-16T12:43:01.395Z,27.50
2018-08-16T12:45:29.547Z,27.60
2018-08-16T12:47:57.716Z,27.80
2018-08-16T12:50:32.568Z,27.50
2018-08-16T12:53:00.735Z,27.50
2018-08-16T12:55:28.890Z,27.50
2018-08-16T12:57:57.117Z,27.60
2018-08-16T13:00:25.287Z,27.80
2018-08-16T13:02:53.491Z,27.90
2018-08-16T13:05:21.635Z,27.80
2018-08-16T13:07:49.789Z,27.70
2018-08-16T13:10:17.943Z,27.70
2018-08-16T13:12:46.090Z,27.80
2018-08-16T13:15:14.274Z,28.00
2018-08-16T13:17:42.431Z,28.10
2018-08-16T13:20:11.337Z,28.20
2018-08-16T13:22:39.617Z,28.30
2018-08-16T13:25:08.323Z,28.20
2018-08-16T13:27:36.560Z,28.30
2018-08-16T13:30:05.356Z,28.30
2018-08-16T13:32:33.853Z,28.40
2018-08-16T13:35:02.858Z,28.30
2018-08-16T13:37:31.013Z,28.40
2018-08-16T13:39:59.236Z,28.40
2018-08-16T13:42:27.476Z,28.50
2018-08-16T13:44:55.836Z,28.50
2018-08-16T13:47:23.983Z,28.50
2018-08-16T13:49:52.174Z,28.60
2018-08-16T13:52:20.359Z,28.60
2018-08-16T13:54:48.534Z,28.60
2018-08-16T13:57:16.706Z,28.70
2018-08-16T13:59:44.907Z,28.80
2018-08-16T14:02:13.054Z,28.90
2018-08-16T14:04:41.426Z,28.90
2018-08-16T14:07:09.594Z,28.80
2018-08-16T14:09:37.743Z,28.90
2018-08-16T14:12:05.918Z,28.90
2018-08-16T14:14:34.079Z,29.00
2018-08-16T14:17:02.265Z,29.00
2018-08-16T14:19:30.442Z,29.00
2018-08-16T14:21:58.585Z,29.00
2018-08-16T14:24:26.771Z,28.90
2018-08-16T14:26:54.941Z,28.90
2018-08-16T14:29:23.177Z,28.80
2018-08-16T14:31:51.338Z,28.80
2018-08-16T14:34:19.510Z,28.80
2018-08-16T14:36:47.669Z,28.80
2018-08-16T14:39:15.827Z,28.90
2018-08-16T14:41:44.009Z,28.90
2018-08-16T14:44:12.160Z,28.90
2018-08-16T14:46:40.294Z,28.80
2018-08-16T14:49:08.418Z,28.90
2018-08-16T14:51:36.570Z,28.90
2018-08-16T14:54:04.743Z,28.90
2018-08-16T14:56:32.879Z,28.90
2018-08-16T14:59:01.036Z,28.90
2018-08-16T15:01:29.198Z,28.90
2018-08-16T15:03:57.345Z,28.80
2018-08-16T15:06:25.519Z,28.70
2018-08-16T15:08:53.742Z,28.70
2018-08-16T15:11:21.883Z,28.80
2018-08-16T15:13:50.045Z,28.90
2018-08-16T15:16:18.214Z,28.90
2018-08-16T15:18:46.391Z,28.90
2018-08-16T15:21:14.557Z,28.80
2018-08-16T15:23:42.724Z,28.70
2018-08-16T15:26:11.335Z,28.70
2018-08-16T15:28:40.115Z,28.70
2018-08-16T15:31:08.285Z,28.70
2018-08-16T15:33:36.443Z,28.70
2018-08-16T15:36:04.937Z,28.70
2018-08-16T15:38:33.101Z,28.70
2018-08-16T15:41:01.401Z,28.70
2018-08-16T15:43:29.460Z,28.70
2018-08-16T15:45:57.630Z,28.70
2018-08-16T15:48:25.794Z,28.70
2018-08-16T15:50:54.001Z,28.70
2018-08-16T15:53:22.168Z,28.60
2018-08-16T15:55:50.344Z,28.60
2018-08-16T15:58:18.558Z,28.60
2018-08-16T16:00:46.732Z,28.70
2018-08-16T16:03:14.914Z,28.60
2018-08-16T16:05:43.152Z,28.50
2018-08-16T16:08:11.302Z,28.60
2018-08-16T16:10:39.474Z,28.70
2018-08-16T16:13:07.667Z,28.70
2018-08-16T16:15:35.895Z,28.80
2018-08-16T16:18:04.086Z,28.80
2018-08-16T16:20:32.238Z,29.00
2018-08-16T16:23:00.433Z,29.00
2018-08-16T16:25:28.655Z,29.10
2018-08-16T16:27:56.886Z,29.10
2018-08-16T16:30:25.060Z,29.10
2018-08-16T16:32:53.239Z,29.20
2018-08-16T16:35:21.411Z,29.20
2018-08-16T16:37:49.582Z,29.10
2018-08-16T16:40:17.754Z,29.10
2018-08-16T16:42:45.898Z,29.00
2018-08-16T16:45:14.030Z,29.00
2018-08-16T16:47:42.220Z,29.00
2018-08-16T16:50:10.370Z,29.00
2018-08-16T16:52:38.546Z,29.00
2018-08-16T16:55:06.722Z,29.00
2018-08-16T16:57:34.994Z,28.90
2018-08-16T17:00:03.245Z,29.00
2018-08-16T17:05:06.227Z,29.00
2018-08-16T17:07:34.370Z,29.00
2018-08-16T17:10:02.497Z,29.00
2018-08-16T17:12:30.685Z,29.00
2018-08-16T17:14:58.837Z,29.00
2018-08-16T17:17:26.997Z,28.90
2018-08-16T17:19:55.153Z,28.90
2018-08-16T17:22:23.335Z,28.80
2018-08-16T17:24:51.469Z,28.70
2018-08-16T17:27:19.642Z,28.70
2018-08-16T17:29:47.793Z,28.70
2018-08-16T17:32:15.967Z,28.60
2018-08-16T17:34:44.113Z,28.60
2018-08-16T17:37:12.257Z,28.60
2018-08-16T17:39:40.496Z,28.60
2018-08-16T17:42:08.837Z,28.50
2018-08-16T17:44:37.015Z,28.50
2018-08-16T17:47:05.178Z,28.40
2018-08-16T17:49:33.342Z,28.40
2018-08-16T17:52:01.533Z,28.30
2018-08-16T17:54:29.659Z,28.20
2018-08-16T17:56:57.910Z,28.20
2018-08-16T17:59:26.073Z,28.10
2018-08-16T18:01:54.234Z,28.00
2018-08-16T18:04:22.408Z,27.80
2018-08-16T18:06:50.591Z,27.70
2018-08-16T18:09:18.829Z,27.50
2018-08-16T18:11:46.985Z,27.40
2018-08-16T18:14:15.172Z,27.20
2018-08-16T18:16:43.353Z,27.10
2018-08-16T18:19:11.517Z,26.90
2018-08-16T18:21:39.714Z,26.80
2018-08-16T18:24:08.802Z,26.60
2018-08-16T18:26:36.963Z,26.50
2018-08-16T18:29:05.286Z,26.30
2018-08-16T18:31:33.458Z,26.20
2018-08-16T18:34:01.653Z,26.00
2018-08-16T18:36:29.860Z,25.90
2018-08-16T18:38:58.046Z,25.80
2018-08-16T18:41:26.209Z,25.60
2018-08-16T18:43:54.381Z,25.50
2018-08-16T18:46:22.527Z,25.30
2018-08-16T18:48:50.778Z,24.90
2018-08-16T18:51:18.917Z,24.60
2018-08-16T18:53:47.092Z,24.40
2018-08-16T18:56:15.262Z,24.20
2018-08-16T18:58:43.413Z,24.00
2018-08-16T19:01:11.566Z,24.00
2018-08-16T19:03:39.731Z,23.90
2018-08-16T19:06:07.906Z,23.90
2018-08-16T19:08:36.091Z,23.90
2018-08-16T19:11:04.242Z,24.00
2018-08-16T19:13:32.383Z,23.90
2018-08-16T19:16:00.558Z,23.90
2018-08-16T19:18:28.725Z,24.00
2018-08-16T19:20:56.889Z,23.90
2018-08-16T19:23:25.051Z,23.90
2018-08-16T19:25:53.227Z,23.90
2018-08-16T19:28:21.466Z,23.80
2018-08-16T19:30:49.731Z,23.80
2018-08-16T19:33:17.941Z,23.70
2018-08-16T19:35:46.251Z,23.70
2018-08-16T19:38:14.342Z,23.60
2018-08-16T19:40:42.503Z,23.50
2018-08-16T19:43:10.661Z,23.30
2018-08-16T19:45:38.901Z,23.20
2018-08-16T19:48:07.476Z,23.00
2018-08-16T19:50:35.525Z,22.60
2018-08-16T19:53:03.760Z,22.30
2018-08-16T19:55:31.929Z,22.10
2018-08-16T19:58:00.144Z,22.10
2018-08-16T20:00:28.306Z,21.90
2018-08-16T20:02:56.526Z,21.80
2018-08-16T20:05:24.614Z,21.70
2018-08-16T20:07:52.762Z,21.60
2018-08-16T20:10:20.919Z,21.40
2018-08-16T20:12:49.086Z,21.30
2018-08-16T20:15:17.249Z,21.10
2018-08-16T20:17:45.439Z,21.00
2018-08-16T20:20:13.625Z,20.90
2018-08-16T20:22:41.834Z,20.90
2018-08-16T20:25:10.070Z,20.90
2018-08-16T20:27:38.200Z,20.80
2018-08-16T20:30:06.698Z,20.70
2018-08-16T20:32:34.839Z,20.70
2018-08-16T20:35:03.027Z,20.70
2018-08-16T20:37:31.176Z,20.60
2018-08-16T20:39:59.334Z,20.60
2018-08-16T20:42:27.478Z,20.50
2018-08-16T20:44:55.643Z,20.40
2018-08-16T20:47:23.810Z,20.40
2018-08-16T20:49:52.006Z,20.40
2018-08-16T20:52:20.154Z,20.40
2018-08-16T20:54:48.354Z,20.40
2018-08-16T20:57:16.549Z,20.40
2018-08-16T20:59:44.675Z,20.40
2018-08-16T21:02:12.873Z,20.40
2018-08-16T21:04:41.064Z,20.30
2018-08-16T21:07:09.225Z,20.10
2018-08-16T21:09:37.431Z,19.90
2018-08-16T21:12:05.760Z,19.70
2018-08-16T21:14:33.938Z,19.50
2018-08-16T21:17:02.103Z,19.30
2018-08-16T21:19:30.286Z,19.20
2018-08-16T21:21:58.433Z,19.00
2018-08-16T21:24:26.591Z,18.90
2018-08-16T21:26:54.898Z,18.90
2018-08-16T21:29:23.055Z,18.80
2018-08-16T21:31:51.227Z,18.80
2018-08-16T21:34:19.403Z,18.80
2018-08-16T21:36:47.554Z,18.80
2018-08-16T21:39:15.698Z,18.70
2018-08-16T21:41:43.854Z,18.60
2018-08-16T21:44:12.010Z,18.60
2018-08-16T21:46:40.199Z,18.50
2018-08-16T21:49:08.349Z,18.50
2018-08-16T21:51:36.522Z,18.50
2018-08-16T21:54:04.676Z,18.50
2018-08-16T21:56:32.817Z,18.50
2018-08-16T21:59:00.974Z,18.40
2018-08-16T22:01:29.129Z,18.40
2018-08-16T22:03:57.302Z,18.30
2018-08-16T22:06:36.918Z,18.20
2018-08-16T22:09:06.656Z,18.20
2018-08-16T22:11:34.845Z,18.20
2018-08-16T22:14:03.000Z,18.00
2018-08-16T22:16:31.154Z,17.90
2018-08-16T22:18:59.301Z,17.90
2018-08-16T22:21:27.475Z,17.90
2018-08-16T22:23:55.637Z,17.90
2018-08-16T22:26:23.835Z,17.90
2018-08-16T22:28:51.981Z,17.90
2018-08-16T22:31:20.117Z,18.00
2018-08-16T22:33:48.355Z,17.90
2018-08-16T22:36:16.502Z,18.00
2018-08-16T22:38:44.670Z,18.00
2018-08-16T22:41:12.826Z,18.00
2018-08-16T22:43:40.986Z,17.90
2018-08-16T22:46:09.143Z,17.90
2018-08-16T22:48:37.287Z,17.80
2018-08-16T22:51:05.469Z,17.70
2018-08-16T22:53:33.644Z,17.70
2018-08-16T22:56:01.794Z,17.80
2018-08-16T22:58:29.947Z,17.60
2018-08-16T23:00:58.094Z,17.60
2018-08-16T23:03:26.262Z,17.70
2018-08-16T23:05:54.413Z,17.70
2018-08-16T23:08:22.565Z,17.80
2018-08-16T23:10:50.710Z,17.70
2018-08-16T23:13:18.875Z,17.60
2018-08-16T23:15:47.032Z,17.50
2018-08-16T23:18:15.206Z,17.20
2018-08-16T23:20:43.388Z,17.20
2018-08-16T23:23:11.574Z,17.20
2018-08-16T23:25:39.733Z,17.00
2018-08-16T23:28:07.918Z,17.00
2018-08-16T23:30:36.066Z,17.00
2018-08-16T23:33:04.242Z,16.80
2018-08-16T23:35:32.402Z,16.70
2018-08-16T23:38:00.557Z,16.70
2018-08-16T23:40:28.715Z,16.40
2018-08-16T23:42:56.850Z,16.30
2018-08-16T23:45:25.011Z,16.30
2018-08-16T23:48:04.638Z,16.30
2018-08-16T23:50:32.793Z,16.30
2018-08-16T23:53:00.951Z,16.40
2018-08-16T23:55:29.105Z,16.50
2018-08-16T23:57:57.249Z,16.50
